Time;durP1;ratioP1;P1;durP2;ratioP2;P2;SDS_P1;SDS_P2;PMS_P1;PMS_P2;Temp;Humidity;BMP_temperature;BMP_pressure;BME280_temperature;BME280_humidity;BME280_pressure;Samples;Min_cycle;Max_cycle;Signal;HPM_P1;HPM_P2
2023/07/30 00:01:46;;;;;;;3.45;3.08;;;;;;;;;;4905492;29;20059;-92
2023/07/30 00:04:13;;;;;;;2.67;2.45;;;;;;;;;;4920764;29;20051;-90
2023/07/30 00:06:40;;;;;;;4.43;2.90;;;;;;;;;;4938479;29;20052;-92
2023/07/30 00:09:09;;;;;;;5.63;4.03;;;;;;;;;;4920300;29;20055;-92
2023/07/30 00:11:36;;;;;;;8.15;3.97;;;;;;;;;;4919677;29;20055;-92
2023/07/30 00:14:06;;;;;;;4.10;3.70;;;;;;;;;;4919081;29;20060;-90
2023/07/30 00:16:34;;;;;;;3.97;3.63;;;;;;;;;;4920167;29;20059;-91
2023/07/30 00:19:01;;;;;;;4.68;3.95;;;;;;;;;;4917527;29;20055;-92
2023/07/30 00:21:31;;;;;;;4.82;4.05;;;;;;;;;;4903285;29;20054;-93
2023/07/30 00:24:00;;;;;;;7.63;4.90;;;;;;;;;;4915946;29;20048;-91
2023/07/30 00:26:29;;;;;;;6.32;4.18;;;;;;;;;;4934062;29;20050;-92
2023/07/30 00:29:00;;;;;;;4.50;3.80;;;;;;;;;;4918233;29;20055;-92
2023/07/30 00:31:27;;;;;;;4.43;3.20;;;;;;;;;;4918061;29;20048;-92
2023/07/30 00:33:55;;;;;;;6.25;4.28;;;;;;;;;;4919381;29;20051;-93
2023/07/30 00:36:22;;;;;;;6.05;3.53;;;;;;;;;;4919183;29;20529;-91
2023/07/30 00:38:49;;;;;;;3.65;3.05;;;;;;;;;;4934173;28;20056;-92
2023/07/30 00:41:17;;;;;;;2.90;2.40;;;;;;;;;;4916991;29;20524;-91
2023/07/30 00:43:46;;;;;;;5.28;3.35;;;;;;;;;;4898964;29;20678;-92
2023/07/30 00:46:14;;;;;;;6.53;2.78;;;;;;;;;;4897939;29;20048;-92
2023/07/30 00:48:41;;;;;;;2.38;2.10;;;;;;;;;;4894258;29;20712;-92
2023/07/30 00:51:10;;;;;;;3.03;2.28;;;;;;;;;;4902372;29;20055;-93
2023/07/30 00:53:40;;;;;;;2.72;2.53;;;;;;;;;;4917640;29;20059;-93
2023/07/30 00:56:08;;;;;;;2.75;2.50;;;;;;;;;;4917211;29;20541;-91
2023/07/30 00:58:36;;;;;;;3.22;2.75;;;;;;;;;;4906523;29;20525;-92
2023/07/30 01:01:05;;;;;;;6.45;2.22;;;;;;;;;;4913728;29;20048;-92
2023/07/30 01:03:33;;;;;;;2.85;2.20;;;;;;;;;;4897035;29;20044;-91
2023/07/30 01:06:00;;;;;;;3.25;1.95;;;;;;;;;;4926626;29;20075;-91
2023/07/30 01:08:28;;;;;;;1.85;1.63;;;;;;;;;;4901487;29;20066;-92
2023/07/30 01:10:56;;;;;;;2.05;1.85;;;;;;;;;;4918600;29;20062;-92
2023/07/30 01:13:23;;;;;;;3.08;1.70;;;;;;;;;;4918576;29;20056;-92
2023/07/30 01:15:53;;;;;;;2.25;1.65;;;;;;;;;;4894701;29;20052;-91
2023/07/30 01:18:22;;;;;;;2.35;1.98;;;;;;;;;;4917281;29;20052;-93
2023/07/30 01:20:58;;;;;;;2.38;1.70;;;;;;;;;;4913917;29;20051;-92
2023/07/30 01:23:28;;;;;;;1.83;1.50;;;;;;;;;;4921449;29;20512;-92
2023/07/30 01:26:02;;;;;;;2.92;2.13;;;;;;;;;;4902533;29;20070;-91
2023/07/30 01:28:37;;;;;;;3.75;1.48;;;;;;;;;;4917379;29;20052;-91
2023/07/30 01:31:06;;;;;;;2.85;1.80;;;;;;;;;;4917632;29;20052;-92
2023/07/30 01:33:33;;;;;;;2.35;1.58;;;;;;;;;;4901714;29;20046;-92
2023/07/30 01:36:05;;;;;;;1.52;1.25;;;;;;;;;;4914126;29;20044;-92
2023/07/30 01:38:33;;;;;;;4.40;1.75;;;;;;;;;;4932076;29;20047;-92
2023/07/30 01:41:05;;;;;;;2.20;1.70;;;;;;;;;;4901397;29;20048;-94
2023/07/30 01:43:35;;;;;;;4.07;1.50;;;;;;;;;;4900929;29;20067;-92
2023/07/30 01:46:05;;;;;;;2.03;1.57;;;;;;;;;;4901903;29;20059;-93
2023/07/30 01:48:35;;;;;;;4.35;2.40;;;;;;;;;;4916591;29;20067;-92
2023/07/30 01:51:06;;;;;;;1.40;1.30;;;;;;;;;;4905544;29;20051;-93
2023/07/30 01:53:34;;;;;;;2.25;1.73;;;;;;;;;;4901441;29;20056;-91
2023/07/30 01:56:03;;;;;;;2.85;1.65;;;;;;;;;;4901393;29;20059;-91
2023/07/30 01:58:32;;;;;;;3.60;1.98;;;;;;;;;;4919814;29;20082;-92
2023/07/30 02:01:02;;;;;;;8.23;2.63;;;;;;;;;;4902343;29;20051;-92
2023/07/30 02:03:29;;;;;;;2.45;1.65;;;;;;;;;;4916432;29;20048;-92
2023/07/30 02:05:59;;;;;;;2.58;2.38;;;;;;;;;;4916946;29;20048;-92
2023/07/30 02:08:30;;;;;;;2.13;1.70;;;;;;;;;;4900125;29;20056;-92
2023/07/30 02:10:57;;;;;;;3.35;1.73;;;;;;;;;;4901543;29;20051;-93
2023/07/30 02:13:25;;;;;;;2.30;2.10;;;;;;;;;;4901509;29;20875;-91
2023/07/30 02:15:53;;;;;;;2.63;2.28;;;;;;;;;;4917721;29;20047;-92
2023/07/30 02:18:20;;;;;;;2.92;2.22;;;;;;;;;;4916583;29;20062;-91
2023/07/30 02:20:53;;;;;;;3.20;2.10;;;;;;;;;;4902054;29;20421;-92
2023/07/30 02:23:21;;;;;;;2.15;1.95;;;;;;;;;;4900936;29;20484;-92
2023/07/30 02:25:50;;;;;;;3.35;1.92;;;;;;;;;;4917769;29;20063;-91
2023/07/30 02:28:20;;;;;;;2.10;1.92;;;;;;;;;;4900304;29;20071;-91
2023/07/30 02:30:49;;;;;;;2.78;2.28;;;;;;;;;;4900712;29;20055;-94
2023/07/30 02:33:17;;;;;;;2.92;2.63;;;;;;;;;;4900046;29;20063;-92
2023/07/30 02:35:44;;;;;;;3.25;2.10;;;;;;;;;;4916111;29;20055;-91
2023/07/30 02:38:11;;;;;;;2.17;1.92;;;;;;;;;;4933078;29;20051;-93
2023/07/30 02:40:39;;;;;;;3.20;2.70;;;;;;;;;;4938916;29;20052;-92
2023/07/30 02:43:07;;;;;;;2.80;2.60;;;;;;;;;;4902863;29;20047;-93
2023/07/30 02:45:35;;;;;;;3.50;2.83;;;;;;;;;;4905001;29;20071;-92
2023/07/30 02:48:02;;;;;;;4.47;2.72;;;;;;;;;;4919038;29;20497;-92
2023/07/30 02:50:30;;;;;;;4.05;2.97;;;;;;;;;;4935420;29;20060;-92
2023/07/30 02:52:57;;;;;;;3.20;2.90;;;;;;;;;;4920693;29;20036;-92
2023/07/30 02:55:24;;;;;;;4.10;2.95;;;;;;;;;;4918526;29;20055;-92
2023/07/30 02:57:54;;;;;;;3.08;2.78;;;;;;;;;;4917657;29;20073;-92
2023/07/30 03:00:25;;;;;;;3.83;3.42;;;;;;;;;;4919028;29;20051;-92
2023/07/30 03:02:53;;;;;;;3.38;2.53;;;;;;;;;;4903238;29;20043;-93
2023/07/30 03:05:20;;;;;;;3.45;3.00;;;;;;;;;;4935426;29;20051;-91
2023/07/30 03:07:50;;;;;;;3.75;3.45;;;;;;;;;;4921489;29;20054;-92
2023/07/30 03:10:20;;;;;;;4.53;3.25;;;;;;;;;;4937226;29;20056;-92
2023/07/30 03:12:47;;;;;;;4.60;3.65;;;;;;;;;;4904020;29;20424;-93
2023/07/30 03:15:14;;;;;;;2.95;2.60;;;;;;;;;;4918744;29;20067;-93
2023/07/30 03:17:46;;;;;;;3.25;2.63;;;;;;;;;;4903602;29;20055;-92
2023/07/30 03:20:15;;;;;;;4.75;3.03;;;;;;;;;;4915291;29;20059;-91
2023/07/30 03:22:43;;;;;;;3.85;2.92;;;;;;;;;;4903913;29;20062;-92
2023/07/30 03:25:10;;;;;;;4.68;3.83;;;;;;;;;;4919531;29;20047;-91
2023/07/30 03:27:37;;;;;;;6.88;4.10;;;;;;;;;;4918497;29;20058;-91
2023/07/30 03:30:06;;;;;;;4.85;4.43;;;;;;;;;;4919955;29;20859;-92
2023/07/30 03:32:36;;;;;;;4.60;4.20;;;;;;;;;;4918638;29;20054;-91
2023/07/30 03:35:05;;;;;;;6.28;4.85;;;;;;;;;;4933989;29;20055;-92
2023/07/30 03:37:35;;;;;;;6.10;4.22;;;;;;;;;;4936981;29;20066;-91
2023/07/30 03:40:06;;;;;;;5.13;4.10;;;;;;;;;;4923645;29;20051;-92
2023/07/30 03:42:35;;;;;;;5.72;3.78;;;;;;;;;;4905234;29;20513;-92
2023/07/30 03:45:03;;;;;;;4.75;4.15;;;;;;;;;;4904871;29;20047;-91
2023/07/30 03:47:33;;;;;;;4.50;4.10;;;;;;;;;;4904992;29;20063;-92
2023/07/30 03:50:00;;;;;;;4.68;3.85;;;;;;;;;;4906892;29;20052;-91
2023/07/30 03:52:34;;;;;;;4.68;3.95;;;;;;;;;;4911051;29;20055;-92
2023/07/30 03:55:01;;;;;;;4.53;4.13;;;;;;;;;;4921826;29;20493;-93
2023/07/30 03:57:29;;;;;;;4.45;4.05;;;;;;;;;;4923618;29;20055;-92
2023/07/30 03:59:58;;;;;;;4.22;3.83;;;;;;;;;;4926560;29;20051;-93
2023/07/30 04:02:30;;;;;;;4.30;3.90;;;;;;;;;;4926132;29;20054;-92
2023/07/30 04:04:59;;;;;;;4.40;4.00;;;;;;;;;;4938698;29;20055;-92
2023/07/30 04:07:26;;;;;;;5.32;4.80;;;;;;;;;;4943764;28;20044;-91
2023/07/30 04:09:55;;;;;;;4.50;3.95;;;;;;;;;;4910683;29;21656;-92
2023/07/30 04:12:23;;;;;;;10.55;4.72;;;;;;;;;;4919456;29;20059;-93
2023/07/30 04:14:51;;;;;;;5.93;4.72;;;;;;;;;;4936458;29;20055;-91
2023/07/30 04:17:18;;;;;;;9.93;5.22;;;;;;;;;;4923858;29;20516;-93
2023/07/30 04:19:49;;;;;;;4.13;3.72;;;;;;;;;;4904520;29;20509;-92
2023/07/30 04:22:19;;;;;;;7.63;4.25;;;;;;;;;;4902240;29;20052;-93
2023/07/30 04:24:46;;;;;;;5.28;4.57;;;;;;;;;;4919074;29;20046;-93
2023/07/30 04:27:15;;;;;;;4.72;4.30;;;;;;;;;;4918594;29;20059;-92
2023/07/30 04:29:43;;;;;;;5.38;4.88;;;;;;;;;;4904183;29;20047;-93
2023/07/30 04:32:12;;;;;;;8.25;6.13;;;;;;;;;;4903543;29;20528;-92
2023/07/30 04:34:40;;;;;;;6.38;4.43;;;;;;;;;;4916284;29;20051;-93
2023/07/30 04:37:10;;;;;;;5.97;4.25;;;;;;;;;;4902183;29;20047;-93
2023/07/30 04:39:40;;;;;;;6.40;3.88;;;;;;;;;;4918765;29;20056;-93
2023/07/30 04:42:08;;;;;;;5.05;4.53;;;;;;;;;;4919302;29;20633;-93
2023/07/30 04:44:37;;;;;;;5.03;3.63;;;;;;;;;;4915856;29;20056;-92
2023/07/30 04:47:11;;;;;;;4.82;4.32;;;;;;;;;;4904129;29;20116;-91
2023/07/30 04:49:40;;;;;;;4.72;3.50;;;;;;;;;;4902439;29;20516;-93
2023/07/30 04:52:10;;;;;;;4.78;3.15;;;;;;;;;;4918437;29;20111;-92
2023/07/30 04:54:37;;;;;;;3.60;3.30;;;;;;;;;;4917765;29;20052;-91
2023/07/30 04:57:06;;;;;;;4.53;4.13;;;;;;;;;;4901742;29;20086;-93
2023/07/30 04:59:34;;;;;;;3.85;3.55;;;;;;;;;;4918479;29;20048;-92
2023/07/30 05:02:03;;;;;;;4.00;3.58;;;;;;;;;;4920177;29;20774;-93
2023/07/30 05:04:31;;;;;;;4.00;3.60;;;;;;;;;;4916867;29;20067;-93
2023/07/30 05:06:58;;;;;;;3.53;3.17;;;;;;;;;;4918045;29;20054;-93
2023/07/30 05:09:25;;;;;;;6.35;3.88;;;;;;;;;;4917968;29;20052;-92
2023/07/30 05:11:53;;;;;;;3.95;3.65;;;;;;;;;;4917627;29;20056;-92
2023/07/30 05:14:25;;;;;;;4.10;3.70;;;;;;;;;;4919249;29;20047;-93
2023/07/30 05:16:52;;;;;;;3.97;3.67;;;;;;;;;;4918617;29;20063;-91
2023/07/30 05:19:21;;;;;;;3.80;3.50;;;;;;;;;;4925783;29;20402;-93
2023/07/30 05:21:48;;;;;;;4.65;3.70;;;;;;;;;;4936724;29;20054;-92
2023/07/30 05:24:16;;;;;;;3.92;3.50;;;;;;;;;;4913615;29;20055;-93
2023/07/30 05:26:43;;;;;;;4.30;3.90;;;;;;;;;;4902173;29;20044;-92
2023/07/30 05:29:11;;;;;;;4.47;2.92;;;;;;;;;;4936732;29;20067;-92
2023/07/30 05:31:38;;;;;;;4.18;3.78;;;;;;;;;;4937721;29;20063;-93
2023/07/30 05:34:07;;;;;;;3.70;3.40;;;;;;;;;;4916487;29;20066;-91
2023/07/30 05:36:36;;;;;;;3.55;2.83;;;;;;;;;;4924202;28;20866;-94
2023/07/30 05:39:04;;;;;;;2.53;2.17;;;;;;;;;;4901747;29;20055;-92
2023/07/30 05:41:34;;;;;;;2.00;1.80;;;;;;;;;;4923236;29;20055;-92
2023/07/30 05:44:02;;;;;;;1.95;1.80;;;;;;;;;;4901332;29;20059;-93
2023/07/30 05:46:29;;;;;;;2.10;1.90;;;;;;;;;;4919084;29;20441;-93
2023/07/30 05:48:57;;;;;;;2.25;1.50;;;;;;;;;;4918733;29;20051;-92
2023/07/30 05:51:24;;;;;;;3.25;1.83;;;;;;;;;;4917884;29;20051;-93
2023/07/30 05:53:53;;;;;;;6.03;2.47;;;;;;;;;;4914354;29;20052;-93
2023/07/30 05:56:20;;;;;;;2.60;2.35;;;;;;;;;;4918502;29;20046;-91
2023/07/30 05:58:48;;;;;;;3.17;2.20;;;;;;;;;;4917328;29;20513;-92
2023/07/30 06:01:15;;;;;;;5.10;2.53;;;;;;;;;;4907290;29;20046;-92
2023/07/30 06:03:45;;;;;;;5.28;2.97;;;;;;;;;;4927217;29;20050;-93
2023/07/30 06:06:12;;;;;;;3.17;2.70;;;;;;;;;;4918147;29;20517;-93
2023/07/30 06:08:40;;;;;;;7.13;3.55;;;;;;;;;;4925893;29;20059;-93
2023/07/30 06:11:09;;;;;;;6.13;3.08;;;;;;;;;;4898068;29;20055;-94
2023/07/30 06:13:36;;;;;;;3.83;2.78;;;;;;;;;;4905756;29;20059;-92
2023/07/30 06:16:04;;;;;;;6.72;3.40;;;;;;;;;;4925923;29;20058;-93
2023/07/30 06:18:32;;;;;;;3.38;2.92;;;;;;;;;;4906585;29;20052;-94
2023/07/30 06:21:01;;;;;;;4.57;2.90;;;;;;;;;;4923305;29;20055;-94
2023/07/30 06:23:29;;;;;;;3.65;3.08;;;;;;;;;;4924310;29;20051;-92
2023/07/30 06:25:56;;;;;;;3.55;2.95;;;;;;;;;;4916967;29;20052;-93
2023/07/30 06:28:25;;;;;;;4.07;3.58;;;;;;;;;;4917665;29;20052;-91
2023/07/30 06:30:53;;;;;;;4.28;3.88;;;;;;;;;;4937315;29;20056;-94
2023/07/30 06:33:20;;;;;;;4.18;3.78;;;;;;;;;;4931066;29;20052;-93
2023/07/30 06:35:47;;;;;;;4.38;4.00;;;;;;;;;;4923583;29;20044;-93
2023/07/30 06:38:15;;;;;;;5.10;4.60;;;;;;;;;;4909804;29;20747;-93
2023/07/30 06:40:42;;;;;;;3.85;3.55;;;;;;;;;;4939338;29;20048;-93
2023/07/30 06:43:13;;;;;;;3.65;3.35;;;;;;;;;;4934386;29;20744;-94
2023/07/30 06:45:42;;;;;;;4.18;3.80;;;;;;;;;;4903662;29;20047;-92
2023/07/30 06:48:09;;;;;;;4.57;3.63;;;;;;;;;;4924030;29;20054;-94
2023/07/30 06:50:37;;;;;;;4.70;4.28;;;;;;;;;;4924612;29;20056;-93
2023/07/30 06:53:07;;;;;;;7.07;3.58;;;;;;;;;;4933817;29;20048;-91
2023/07/30 06:55:36;;;;;;;4.18;3.72;;;;;;;;;;4903227;29;20047;-93
2023/07/30 06:58:04;;;;;;;5.53;4.10;;;;;;;;;;4919164;29;20059;-93
2023/07/30 07:00:34;;;;;;;4.72;4.00;;;;;;;;;;4914569;29;20398;-94
2023/07/30 07:03:05;;;;;;;6.18;2.88;;;;;;;;;;4933641;29;20055;-91
2023/07/30 07:05:34;;;;;;;12.07;4.00;;;;;;;;;;4915219;29;20055;-94
2023/07/30 07:08:05;;;;;;;3.92;3.63;;;;;;;;;;4945743;29;20074;-93
2023/07/30 07:10:33;;;;;;;3.53;3.22;;;;;;;;;;4940073;29;20053;-94
2023/07/30 07:13:00;;;;;;;3.28;2.80;;;;;;;;;;4921567;29;20055;-92
2023/07/30 07:15:27;;;;;;;3.65;2.72;;;;;;;;;;4920561;29;20062;-94
2023/07/30 07:17:55;;;;;;;3.70;3.38;;;;;;;;;;4942223;29;20058;-91
2023/07/30 07:20:27;;;;;;;3.05;2.65;;;;;;;;;;4936736;29;20052;-93
2023/07/30 07:22:54;;;;;;;6.95;3.88;;;;;;;;;;4946054;29;20090;-93
2023/07/30 07:25:24;;;;;;;2.72;2.53;;;;;;;;;;4904667;29;20047;-93
2023/07/30 07:27:54;;;;;;;3.58;3.28;;;;;;;;;;4902971;29;20056;-92
2023/07/30 07:30:24;;;;;;;5.10;3.95;;;;;;;;;;4917915;29;20048;-94
2023/07/30 07:32:53;;;;;;;5.03;3.90;;;;;;;;;;4901736;29;20056;-93
2023/07/30 07:35:21;;;;;;;3.50;3.20;;;;;;;;;;4922176;29;20778;-94
2023/07/30 07:37:49;;;;;;;4.10;3.17;;;;;;;;;;4921315;29;20074;-94
2023/07/30 07:40:17;;;;;;;15.93;4.13;;;;;;;;;;4918195;29;20059;-93
2023/07/30 07:42:47;;;;;;;3.85;3.22;;;;;;;;;;4919055;29;20052;-91
2023/07/30 07:45:17;;;;;;;8.30;3.10;;;;;;;;;;4918771;29;20054;-93
2023/07/30 07:47:45;;;;;;;3.45;3.10;;;;;;;;;;4918395;29;20078;-93
2023/07/30 07:50:15;;;;;;;4.78;3.63;;;;;;;;;;4919711;29;20055;-92
2023/07/30 07:52:43;;;;;;;4.15;3.40;;;;;;;;;;4920317;29;20421;-92
2023/07/30 07:55:12;;;;;;;4.05;3.33;;;;;;;;;;4917962;29;20048;-92
2023/07/30 07:57:39;;;;;;;3.75;3.00;;;;;;;;;;4918067;29;20043;-94
2023/07/30 08:00:08;;;;;;;3.30;3.00;;;;;;;;;;4901188;29;20055;-93
2023/07/30 08:02:39;;;;;;;5.13;3.03;;;;;;;;;;4918810;29;20457;-91
2023/07/30 08:05:07;;;;;;;3.25;2.95;;;;;;;;;;4919747;29;20055;-93
2023/07/30 08:07:35;;;;;;;4.00;2.72;;;;;;;;;;4917938;29;20178;-93
2023/07/30 08:10:08;;;;;;;3.08;2.78;;;;;;;;;;4924167;29;20779;-92
2023/07/30 08:12:37;;;;;;;3.92;2.67;;;;;;;;;;4917731;29;20063;-92
2023/07/30 08:15:05;;;;;;;2.53;2.22;;;;;;;;;;4918264;29;20108;-91
2023/07/30 08:17:32;;;;;;;2.63;2.10;;;;;;;;;;4917158;29;20048;-92
2023/07/30 08:19:59;;;;;;;2.47;2.28;;;;;;;;;;4918620;29;20454;-93
2023/07/30 08:22:27;;;;;;;2.97;2.13;;;;;;;;;;4918759;29;20067;-92
2023/07/30 08:24:54;;;;;;;3.40;2.55;;;;;;;;;;4918154;29;20048;-91
2023/07/30 08:27:22;;;;;;;3.10;2.47;;;;;;;;;;4933491;29;20039;-92
2023/07/30 08:29:51;;;;;;;2.72;2.53;;;;;;;;;;4935818;29;20048;-93
2023/07/30 08:32:21;;;;;;;3.53;2.45;;;;;;;;;;4917181;29;20581;-92
2023/07/30 08:34:48;;;;;;;2.97;2.67;;;;;;;;;;4932172;29;20065;-92
2023/07/30 08:37:18;;;;;;;2.75;2.20;;;;;;;;;;4904219;29;20056;-93
2023/07/30 08:39:47;;;;;;;4.72;2.45;;;;;;;;;;4905676;29;20093;-92
2023/07/30 08:42:15;;;;;;;2.83;2.22;;;;;;;;;;4919872;29;20059;-92
2023/07/30 08:44:42;;;;;;;2.35;2.00;;;;;;;;;;4933806;29;20050;-92
2023/07/30 08:47:11;;;;;;;3.50;1.98;;;;;;;;;;4901197;29;20212;-91
2023/07/30 08:49:39;;;;;;;4.05;2.80;;;;;;;;;;4934132;29;20066;-93
2023/07/30 08:52:09;;;;;;;3.65;2.05;;;;;;;;;;4914203;29;20056;-92
2023/07/30 08:54:38;;;;;;;2.95;2.67;;;;;;;;;;4936435;29;20062;-93
2023/07/30 08:57:06;;;;;;;3.30;2.35;;;;;;;;;;4917755;29;20048;-93
2023/07/30 08:59:38;;;;;;;4.88;2.00;;;;;;;;;;4918598;29;20047;-93
2023/07/30 09:02:14;;;;;;;2.63;2.13;;;;;;;;;;4902395;29;20063;-93
2023/07/30 09:04:42;;;;;;;3.15;2.20;;;;;;;;;;4918950;29;20062;-92
2023/07/30 09:07:10;;;;;;;4.82;1.90;;;;;;;;;;4937438;29;20055;-92
2023/07/30 09:09:38;;;;;;;6.60;2.65;;;;;;;;;;4921787;29;20055;-93
2023/07/30 09:12:14;;;;;;;2.80;2.17;;;;;;;;;;4921767;29;20457;-93
2023/07/30 09:14:44;;;;;;;3.45;1.77;;;;;;;;;;4923337;29;20056;-94
2023/07/30 09:17:17;;;;;;;3.05;2.05;;;;;;;;;;4918930;29;20075;-94
2023/07/30 09:19:48;;;;;;;4.22;2.05;;;;;;;;;;4920366;29;20051;-93
2023/07/30 09:22:26;;;;;;;3.58;1.67;;;;;;;;;;4937703;29;20048;-93
2023/07/30 09:24:54;;;;;;;1.50;1.35;;;;;;;;;;4936408;29;20062;-93
2023/07/30 09:27:26;;;;;;;3.85;1.98;;;;;;;;;;4918933;29;20060;-94
2023/07/30 09:29:57;;;;;;;4.70;1.75;;;;;;;;;;4934228;29;20078;-94
2023/07/30 09:32:28;;;;;;;4.07;2.03;;;;;;;;;;4940919;29;20047;-94
2023/07/30 09:34:55;;;;;;;1.95;1.67;;;;;;;;;;4904383;29;20063;-94
2023/07/30 09:37:26;;;;;;;2.92;1.55;;;;;;;;;;4920902;29;20051;-93
2023/07/30 09:39:54;;;;;;;3.38;1.55;;;;;;;;;;4937801;29;20055;-93
2023/07/30 09:42:28;;;;;;;2.33;1.95;;;;;;;;;;4935558;29;20048;-94
2023/07/30 09:44:59;;;;;;;4.50;1.60;;;;;;;;;;4909176;29;20062;-92
2023/07/30 09:47:28;;;;;;;1.88;1.77;;;;;;;;;;4911945;29;20076;-95
2023/07/30 09:49:56;;;;;;;2.45;1.77;;;;;;;;;;4929042;29;20056;-94
2023/07/30 09:52:23;;;;;;;2.30;1.73;;;;;;;;;;4926448;29;20039;-93
2023/07/30 09:54:54;;;;;;;2.95;1.30;;;;;;;;;;4934907;29;20059;-93
2023/07/30 09:57:24;;;;;;;3.00;2.13;;;;;;;;;;4942957;29;20063;-94
2023/07/30 09:59:53;;;;;;;3.30;1.65;;;;;;;;;;4931461;29;20040;-92
2023/07/30 10:02:20;;;;;;;2.60;1.48;;;;;;;;;;4940296;28;20035;-90
2023/07/30 10:04:52;;;;;;;2.30;1.67;;;;;;;;;;4934758;28;20032;-90
2023/07/30 10:07:21;;;;;;;1.48;1.35;;;;;;;;;;4933909;29;20062;-93
2023/07/30 10:09:50;;;;;;;4.93;2.65;;;;;;;;;;4921445;29;20709;-92
2023/07/30 10:12:23;;;;;;;1.83;1.50;;;;;;;;;;4933864;29;20047;-95
2023/07/30 10:14:53;;;;;;;1.60;1.50;;;;;;;;;;4918306;29;20058;-93
2023/07/30 10:17:20;;;;;;;2.30;1.73;;;;;;;;;;4933407;29;20073;-92
2023/07/30 10:19:56;;;;;;;5.32;2.30;;;;;;;;;;4906814;29;20072;-92
2023/07/30 10:22:25;;;;;;;1.23;1.13;;;;;;;;;;4904480;29;20067;-94
2023/07/30 10:25:00;;;;;;;2.15;1.70;;;;;;;;;;4930710;29;20552;-93
2023/07/30 10:27:29;;;;;;;3.35;2.35;;;;;;;;;;4927242;29;20051;-93
2023/07/30 10:30:13;;;;;;;1.80;1.70;;;;;;;;;;4915263;29;20047;-94
2023/07/30 10:32:42;;;;;;;2.10;1.83;;;;;;;;;;4945562;29;20572;-94
2023/07/30 10:35:40;;;;;;;2.63;1.85;;;;;;;;;;4926968;29;20055;-94
2023/07/30 10:38:20;;;;;;;4.45;1.33;;;;;;;;;;4937620;29;20047;-93
2023/07/30 10:41:37;;;;;;;1.88;1.60;;;;;;;;;;4932955;29;20051;-93
2023/07/30 10:44:55;;;;;;;1.63;1.17;;;;;;;;;;4940406;29;20059;-93
2023/07/30 10:47:27;;;;;;;1.63;1.50;;;;;;;;;;4937353;29;20043;-94
2023/07/30 10:50:01;;;;;;;1.63;1.15;;;;;;;;;;4906094;29;20099;-94
2023/07/30 10:52:30;;;;;;;3.70;1.23;;;;;;;;;;4906893;29;20051;-95
2023/07/30 10:55:01;;;;;;;1.52;1.27;;;;;;;;;;4907385;29;20091;-95
2023/07/30 10:57:31;;;;;;;1.88;1.13;;;;;;;;;;4905010;29;20055;-93
2023/07/30 11:00:01;;;;;;;1.88;1.10;;;;;;;;;;4923449;29;20047;-95
2023/07/30 11:02:33;;;;;;;1.95;1.38;;;;;;;;;;4923103;29;20047;-93
2023/07/30 11:05:12;;;;;;;1.60;1.13;;;;;;;;;;4924619;29;20082;-93
2023/07/30 11:07:50;;;;;;;1.73;1.10;;;;;;;;;;4921835;29;20056;-93
2023/07/30 11:10:18;;;;;;;1.35;1.10;;;;;;;;;;4926157;29;20055;-93
2023/07/30 11:12:47;;;;;;;1.85;1.45;;;;;;;;;;4928717;29;20056;-94
2023/07/30 11:15:15;;;;;;;3.17;1.52;;;;;;;;;;4944694;29;20051;-92
2023/07/30 11:17:44;;;;;;;1.48;0.93;;;;;;;;;;4933115;29;20048;-94
2023/07/30 11:20:23;;;;;;;1.23;0.93;;;;;;;;;;4931928;29;20044;-92
2023/07/30 11:22:52;;;;;;;1.77;1.10;;;;;;;;;;4961150;28;20027;-93
2023/07/30 11:25:20;;;;;;;6.68;1.33;;;;;;;;;;4962573;28;20046;-93
2023/07/30 11:27:53;;;;;;;1.65;1.30;;;;;;;;;;4934504;29;20065;-93
2023/07/30 11:30:20;;;;;;;2.33;1.80;;;;;;;;;;4940145;29;20047;-93
2023/07/30 11:32:50;;;;;;;5.32;1.45;;;;;;;;;;4953674;29;20050;-94
2023/07/30 11:35:18;;;;;;;1.08;0.80;;;;;;;;;;4955505;28;20035;-94
2023/07/30 11:37:50;;;;;;;1.48;1.30;;;;;;;;;;4938418;29;20058;-93
2023/07/30 11:40:19;;;;;;;1.90;1.13;;;;;;;;;;4955549;28;20062;-93
2023/07/30 11:42:47;;;;;;;1.65;1.20;;;;;;;;;;4956229;28;20051;-93
2023/07/30 11:45:21;;;;;;;3.80;2.35;;;;;;;;;;4960665;28;20011;-91
2023/07/30 11:47:50;;;;;;;3.58;1.30;;;;;;;;;;4943210;29;20047;-93
2023/07/30 11:50:19;;;;;;;3.67;1.42;;;;;;;;;;4955977;28;20023;-94
2023/07/30 11:52:55;;;;;;;2.30;1.05;;;;;;;;;;4955735;28;20032;-92
2023/07/30 11:55:25;;;;;;;1.45;1.23;;;;;;;;;;4952612;29;20058;-94
2023/07/30 11:57:52;;;;;;;1.38;0.90;;;;;;;;;;4948348;29;20051;-93
2023/07/30 12:00:22;;;;;;;2.80;1.85;;;;;;;;;;4930056;29;20054;-94
2023/07/30 12:02:49;;;;;;;1.40;1.30;;;;;;;;;;4925506;29;20055;-93
2023/07/30 12:05:19;;;;;;;1.45;1.05;;;;;;;;;;4933955;29;20425;-94
2023/07/30 12:07:48;;;;;;;1.33;1.02;;;;;;;;;;4905440;29;20052;-93
2023/07/30 12:10:15;;;;;;;1.77;1.15;;;;;;;;;;4923290;29;20626;-93
2023/07/30 12:12:47;;;;;;;2.40;1.35;;;;;;;;;;4928291;29;20058;-93
2023/07/30 12:15:17;;;;;;;1.98;1.60;;;;;;;;;;4925045;29;20056;-94
2023/07/30 12:17:45;;;;;;;1.83;1.45;;;;;;;;;;4929815;29;20054;-93
2023/07/30 12:20:12;;;;;;;1.30;1.00;;;;;;;;;;4921094;29;20047;-93
2023/07/30 12:22:42;;;;;;;2.92;1.10;;;;;;;;;;4922286;29;20055;-93
2023/07/30 12:25:10;;;;;;;1.33;0.90;;;;;;;;;;4924976;29;20420;-93
2023/07/30 12:27:37;;;;;;;2.25;1.40;;;;;;;;;;4922627;29;20468;-93
2023/07/30 12:30:08;;;;;;;1.92;1.42;;;;;;;;;;4923171;29;20048;-94
2023/07/30 12:32:35;;;;;;;1.10;0.80;;;;;;;;;;4905424;29;20071;-93
2023/07/30 12:35:03;;;;;;;1.45;1.05;;;;;;;;;;4922359;29;20460;-93
2023/07/30 12:37:35;;;;;;;2.45;1.23;;;;;;;;;;4921829;29;20078;-93
2023/07/30 12:40:06;;;;;;;3.75;1.38;;;;;;;;;;4922108;29;20056;-94
2023/07/30 12:42:33;;;;;;;1.92;1.02;;;;;;;;;;4938274;29;20051;-93
2023/07/30 12:45:08;;;;;;;1.73;1.48;;;;;;;;;;4934342;29;20043;-94
2023/07/30 12:47:38;;;;;;;2.83;1.17;;;;;;;;;;4929109;29;20055;-94
2023/07/30 12:50:06;;;;;;;1.30;1.00;;;;;;;;;;4939997;29;20058;-93
2023/07/30 12:52:35;;;;;;;2.58;1.50;;;;;;;;;;4936400;29;20047;-93
2023/07/30 12:55:06;;;;;;;4.00;1.50;;;;;;;;;;4937989;29;20058;-93
2023/07/30 12:57:35;;;;;;;3.33;1.60;;;;;;;;;;4925423;29;20055;-93
2023/07/30 13:00:08;;;;;;;1.77;1.08;;;;;;;;;;4938445;29;20043;-93
2023/07/30 13:02:39;;;;;;;2.03;0.98;;;;;;;;;;4935562;29;20060;-94
2023/07/30 13:05:13;;;;;;;4.18;1.55;;;;;;;;;;4904684;29;20062;-94
2023/07/30 13:07:42;;;;;;;1.65;0.80;;;;;;;;;;4921889;29;20062;-93
2023/07/30 13:10:10;;;;;;;2.25;1.25;;;;;;;;;;4904661;29;20051;-94
2023/07/30 13:12:38;;;;;;;3.15;1.42;;;;;;;;;;4920837;29;20059;-93
2023/07/30 13:15:08;;;;;;;2.95;1.10;;;;;;;;;;4905357;29;20067;-94
2023/07/30 13:17:35;;;;;;;4.95;1.25;;;;;;;;;;4922710;29;20066;-94
2023/07/30 13:20:03;;;;;;;2.17;1.30;;;;;;;;;;4925455;29;20048;-93
2023/07/30 13:22:33;;;;;;;2.25;1.30;;;;;;;;;;4922639;29;20044;-93
2023/07/30 13:25:00;;;;;;;1.95;1.00;;;;;;;;;;4933486;28;20051;-93
2023/07/30 13:27:30;;;;;;;4.00;1.67;;;;;;;;;;4922687;29;20052;-93
2023/07/30 13:29:58;;;;;;;1.90;1.17;;;;;;;;;;4905635;29;20541;-93
2023/07/30 13:32:27;;;;;;;2.03;1.45;;;;;;;;;;4905959;29;20062;-93
2023/07/30 13:34:54;;;;;;;4.88;1.00;;;;;;;;;;4920621;29;20064;-94
2023/07/30 13:37:22;;;;;;;1.48;1.10;;;;;;;;;;4926983;29;20047;-93
2023/07/30 13:39:49;;;;;;;5.53;1.70;;;;;;;;;;4937739;29;20059;-94
2023/07/30 13:42:17;;;;;;;2.80;1.65;;;;;;;;;;4920365;29;20066;-94
2023/07/30 13:44:44;;;;;;;2.42;1.08;;;;;;;;;;4939873;29;20067;-93
2023/07/30 13:47:14;;;;;;;2.72;1.30;;;;;;;;;;4922579;29;20055;-93
2023/07/30 13:49:43;;;;;;;2.97;1.40;;;;;;;;;;4908277;29;20138;-94
2023/07/30 13:52:17;;;;;;;3.28;1.40;;;;;;;;;;4906858;29;20059;-93
2023/07/30 13:54:47;;;;;;;4.25;2.05;;;;;;;;;;4937469;29;20051;-93
2023/07/30 13:57:22;;;;;;;3.00;1.13;;;;;;;;;;4907669;29;20058;-93
2023/07/30 13:59:50;;;;;;;3.92;1.60;;;;;;;;;;4923375;29;20071;-93
2023/07/30 14:02:17;;;;;;;2.10;1.10;;;;;;;;;;4921208;29;20050;-93
2023/07/30 14:04:46;;;;;;;3.03;1.33;;;;;;;;;;4921610;29;20055;-92
2023/07/30 14:07:16;;;;;;;2.25;1.50;;;;;;;;;;4920867;29;20052;-93
2023/07/30 14:09:43;;;;;;;2.88;1.60;;;;;;;;;;4924575;29;20048;-94
2023/07/30 14:12:15;;;;;;;2.58;1.23;;;;;;;;;;4920370;29;20421;-92
2023/07/30 14:14:43;;;;;;;4.18;1.58;;;;;;;;;;4921809;29;20051;-93
2023/07/30 14:17:10;;;;;;;2.13;1.50;;;;;;;;;;4920842;29;20442;-93
2023/07/30 14:19:40;;;;;;;3.05;0.98;;;;;;;;;;4937843;29;20067;-93
2023/07/30 14:22:08;;;;;;;2.95;1.20;;;;;;;;;;4921022;29;20059;-92
2023/07/30 14:24:39;;;;;;;8.38;1.73;;;;;;;;;;4919783;29;20051;-93
2023/07/30 14:27:09;;;;;;;2.35;1.00;;;;;;;;;;4920243;29;20063;-93
2023/07/30 14:29:36;;;;;;;5.28;1.42;;;;;;;;;;4919975;29;20048;-92
2023/07/30 14:32:04;;;;;;;3.13;1.58;;;;;;;;;;4940581;29;20055;-92
2023/07/30 14:34:31;;;;;;;1.63;1.08;;;;;;;;;;4906727;29;20059;-93
2023/07/30 14:36:59;;;;;;;2.50;1.55;;;;;;;;;;4942402;29;20052;-92
2023/07/30 14:39:27;;;;;;;3.05;1.65;;;;;;;;;;4924743;29;20043;-94
2023/07/30 14:41:55;;;;;;;2.28;1.40;;;;;;;;;;4926450;29;20271;-93
2023/07/30 14:44:25;;;;;;;2.25;1.63;;;;;;;;;;4928960;29;20050;-93
2023/07/30 14:46:53;;;;;;;3.15;1.60;;;;;;;;;;4926788;29;20062;-94
2023/07/30 14:49:21;;;;;;;2.92;1.25;;;;;;;;;;4925694;29;20046;-93
2023/07/30 14:51:51;;;;;;;4.28;1.70;;;;;;;;;;4925201;29;20067;-94
2023/07/30 14:54:18;;;;;;;7.72;1.40;;;;;;;;;;4940516;29;20059;-93
2023/07/30 14:56:47;;;;;;;5.78;1.65;;;;;;;;;;4946672;29;20063;-93